Eddystone — ZIQT3 — position and weather

sailwx.info

Track history (hours):
 
Tides and Currents Weather Stations Pressure Air Temp Water Temp Dewpoint Dewpoint Depression Visibility Wind Speed Wind Dir Waves Ship Positions

Eddystone

Last reported at 2017-Oct-28 07:45 UTC. Time now 2017-Nov-21 06:32 UTC.
Position N 28°18' W 016°03'.
Warning: this ship's position is 23 days out of date.

Length 193 m; draft 5.9 m.

Type: Cargo ship. MMSI: 235507000.

Date/timePositionNaut miles runAvg speedWind from/ knotsBaromVisibWave heightAir tempDewpointWater temp
2017-Oct-28 07:45N 28°18' W 016°03'311.3
2017-Oct-28 07:30N 28°20' W 016°01'611.1
2017-Oct-28 07:00N 28°25' W 015°57'611.0
2017-Oct-28 06:30N 28°29' W 015°53'611.2
2017-Oct-28 06:00N 28°33' W 015°49'611.1
2017-Oct-28 05:30N 28°38' W 015°45'510.9
2017-Oct-28 05:00N 28°43' W 015°43'611.1
2017-Oct-28 04:30N 28°48' W 015°42'611.4
2017-Oct-28 03:59N 28°54' W 015°40'611.5
2017-Oct-28 03:30N 28°59' W 015°38'611.2
2017-Oct-28 03:00N 29°05' W 015°37'611.2
2017-Oct-28 02:30N 29°10' W 015°35'611.1
2017-Oct-28 02:00N 29°15' W 015°33'611.2
2017-Oct-28 01:30N 29°21' W 015°31'611.4
2017-Oct-28 01:00N 29°26' W 015°29'611.6
2017-Oct-28 00:30N 29°32' W 015°27'611.5
2017-Oct-28 00:00N 29°37' W 015°25'611.5
2017-Oct-27 23:30N 29°43' W 015°23'611.5
2017-Oct-27 23:00N 29°48' W 015°21'611.5
2017-Oct-27 22:30N 29°54' W 015°19'611.5
2017-Oct-27 22:00N 29°59' W 015°17'611.4
2017-Oct-27 21:30N 30°05' W 015°15'611.3
2017-Oct-27 21:00N 30°10' W 015°13'611.2
2017-Oct-27 20:30N 30°15' W 015°11'611.2
2017-Oct-27 20:00N 30°21' W 015°09'611.0
2017-Oct-27 19:30N 30°26' W 015°07'611.3
2017-Oct-27 19:00N 30°31' W 015°05'611.3
2017-Oct-27 18:30N 30°36' W 015°03'611.4
2017-Oct-27 18:00N 30°42' W 015°01'611.5
2017-Oct-27 17:30N 30°47' W 014°59'611.7
2017-Oct-27 17:00N 30°53' W 014°57'611.6
2017-Oct-27 16:30N 30°58' W 014°55'611.8
2017-Oct-27 16:00N 31°04' W 014°53'611.5
2017-Oct-27 15:30N 31°10' W 014°51'612.0
2017-Oct-27 15:00N 31°15' W 014°49'612.3
2017-Oct-27 14:30N 31°21' W 014°46'612.1
2017-Oct-27 14:00N 31°27' W 014°44'612.1
2017-Oct-27 13:29N 31°33' W 014°42'612.1
2017-Oct-27 13:00N 31°38' W 014°40'612.3
2017-Oct-27 12:30N 31°44' W 014°38'612.2
2017-Oct-27 12:00N 31°50' W 014°36'611.7
2017-Oct-27 11:30N 31°56' W 014°33'611.3
2017-Oct-27 11:00N 32°01' W 014°31'3 5.0
2017-Oct-27 10:30N 32°03' W 014°30'611.1
2017-Oct-27 10:00N 32°09' W 014°29'611.4
2017-Oct-27 09:30N 32°14' W 014°27'611.6
2017-Oct-27 09:00N 32°20' W 014°24'611.4
2017-Oct-27 08:30N 32°25' W 014°22'611.5
2017-Oct-27 08:00N 32°31' W 014°20'611.4
2017-Oct-27 07:30N 32°36' W 014°18'611.4
2017-Oct-27 07:00N 32°42' W 014°16'611.0
2017-Oct-27 06:30N 32°47' W 014°14'611.1
2017-Oct-27 06:00N 32°52' W 014°12'611.3
2017-Oct-27 05:30N 32°58' W 014°10'12311.4
2017-Oct-26 18:44N 34°55' W 013°24'311.7
2017-Oct-26 18:30N 34°57' W 013°23'611.9
2017-Oct-26 18:00N 35°03' W 013°21'611.7
2017-Oct-26 17:30N 35°09' W 013°19'611.3
2017-Oct-26 17:00N 35°14' W 013°17'611.3
2017-Oct-26 16:30N 35°19' W 013°15'611.3
2017-Oct-26 16:00N 35°25' W 013°13'611.5
2017-Oct-26 15:30N 35°30' W 013°10'611.5
2017-Oct-26 15:00N 35°36' W 013°08'611.5
2017-Oct-26 14:30N 35°41' W 013°06'611.2
2017-Oct-26 14:00N 35°46' W 013°04'611.2
2017-Oct-26 13:30N 35°52' W 013°02'611.3
2017-Oct-26 13:00N 35°57' W 012°60'611.3
2017-Oct-26 12:30N 36°03' W 012°58'611.1
2017-Oct-26 12:00N 36°08' W 012°56'611.0
2017-Oct-26 11:30N 36°13' W 012°53'611.4
2017-Oct-26 11:00N 36°19' W 012°51'611.6
2017-Oct-26 10:30N 36°24' W 012°49'611.8
2017-Oct-26 10:00N 36°30' W 012°47'611.4
2017-Oct-26 09:30N 36°35' W 012°45'611.1
2017-Oct-26 09:00N 36°40' W 012°43'511.0
2017-Oct-26 08:30N 36°46' W 012°41'611.2
2017-Oct-26 08:00N 36°51' W 012°39'611.6
2017-Oct-26 07:30N 36°57' W 012°37'611.6
2017-Oct-26 07:00N 37°02' W 012°35'611.4
2017-Oct-26 06:30N 37°08' W 012°33'611.3
2017-Oct-26 06:00N 37°13' W 012°30'611.3
2017-Oct-26 05:30N 37°18' W 012°27'611.5
2017-Oct-26 05:00N 37°23' W 012°25'611.4
2017-Oct-26 04:30N 37°29' W 012°23'611.4
2017-Oct-26 03:57N 37°35' W 012°21'2211.3
2017-Oct-26 02:02N 37°55' W 012°12'911.8
2017-Oct-26 01:18N 38°04' W 012°09'311.5
2017-Oct-26 01:00N 38°07' W 012°07'611.5
2017-Oct-26 00:30N 38°13' W 012°05'611.4
2017-Oct-26 00:01N 38°18' W 012°03'611.1
2017-Oct-25 23:30N 38°23' W 012°01'511.0
2017-Oct-25 23:01N 38°28' W 011°59'611.2
2017-Oct-25 22:31N 38°34' W 011°56'611.2
2017-Oct-25 22:01N 38°39' W 011°54'611.2
2017-Oct-25 21:30N 38°44' W 011°52'611.1
2017-Oct-25 21:00N 38°50' W 011°50'29513.4
2017-Oct-24 22:57N 43°32' W 009°55'3016.0
2017-Oct-24 21:06N 43°58' W 009°36'316.1
2017-Oct-24 20:55N 44°01' W 009°34'715.9
2017-Oct-24 20:30N 44°07' W 009°30'715.3
2017-Oct-24 20:00N 44°14' W 009°25'715.0
2017-Oct-24 19:31N 44°20' W 009°20'815.5
2017-Oct-24 19:00N 44°27' W 009°16'1715.8
2017-Oct-24 17:57N 44°42' W 009°05'715.4
2017-Oct-24 17:30N 44°48' W 009°00'2415.5
2017-Oct-24 15:57N 45°09' W 008°44'1815.6
2017-Oct-24 14:47N 45°25' W 008°31'3814.6
2017-Oct-24 12:10N 45°59' W 008°06'214.4
2017-Oct-24 12:00N 46°01' W 008°04'1314.9
2017-Oct-24 11:07N 46°13' W 007°56'1515.1
2017-Oct-24 10:08N 46°27' W 007°47'4214.5
2017-Oct-24 07:16N 47°03' W 007°19'514.8
2017-Oct-24 06:54N 47°08' W 007°15'615.1
2017-Oct-24 06:29N 47°14' W 007°11'714.9
2017-Oct-24 06:00N 47°20' W 007°05'814.6
2017-Oct-24 05:28N 47°26' W 006°59'714.3
2017-Oct-24 05:00N 47°32' W 006°54'914.2
2017-Oct-24 04:21N 47°41' W 006°48'513.9
2017-Oct-24 03:59N 47°45' W 006°45'713.9
2017-Oct-24 03:29N 47°52' W 006°40'813.8
2017-Oct-24 02:56N 47°58' W 006°34'614.0
2017-Oct-24 02:30N 48°03' W 006°30'814.1
2017-Oct-24 01:58N 48°10' W 006°24'714.5
2017-Oct-24 01:30N 48°16' W 006°20'815.0
2017-Oct-24 01:00N 48°23' W 006°15'815.3
2017-Oct-24 00:30N 48°29' W 006°09'1415.7
2017-Oct-23 23:38N 48°41' W 005°60'415.8
2017-Oct-23 23:21N 48°45' W 005°57'615.8
2017-Oct-23 22:59N 48°50' W 005°52'814.9
2017-Oct-23 22:26N 48°56' W 005°43'615.2
2017-Oct-23 22:01N 48°59' W 005°35'6713.7
2017-Oct-23 17:07N 49°34' W 004°07'413.8
2017-Oct-23 16:51N 49°36' W 004°02'514.4
2017-Oct-23 16:30N 49°39' W 003°55'715.0
2017-Oct-23 16:00N 49°42' W 003°46'915.8
2017-Oct-23 15:27N 49°46' W 003°33'716.0
2017-Oct-23 15:00N 49°49' W 003°23'816.6
2017-Oct-23 14:30N 49°53' W 003°12'816.5
2017-Oct-23 14:00N 49°57' W 003°01'1315.9
2017-Oct-23 13:12N 50°02' W 002°42'6512.7
2017-Oct-23 08:06N 50°31' W 001°11'112.0
2017-Oct-23 08:00N 50°31' W 001°10'612.9
2017-Oct-23 07:31N 50°35' W 001°01'713.2
2017-Oct-23 07:00N 50°41' W 000°58'713.4
2017-Oct-23 06:30N 50°45' W 001°07'816.1
2017-Oct-23 06:01N 50°48' W 001°19'510.9
2017-Oct-23 05:30N 50°52' W 001°23'2 0.4
2017-Oct-23 00:24N 50°54' W 001°25'  
2017-Oct-20 15:48N 50°54' W 001°25'0 0.0
2017-Oct-20 08:09N 50°54' W 001°25'0 0.0
2017-Oct-19 17:39N 50°54' W 001°25'0 0.0
2017-Oct-19 14:39N 50°54' W 001°25'  
Track history (hours):
 
Tides and Currents Weather Stations Pressure Air Temp Water Temp Dewpoint Dewpoint Depression Visibility Wind Speed Wind Dir Waves Ship Positions

Eddystone

Last reported at 2017-Oct-28 07:45 UTC. Time now 2017-Nov-21 06:32 UTC.
Position N 28°18' W 016°03'.
Warning: this ship's position is 23 days out of date.

Length 193 m; draft 5.9 m.

Type: Cargo ship. MMSI: 235507000.

Date/timePositionNaut miles runAvg speedWind from/ knotsBaromVisibWave heightAir tempDewpointWater temp
2017-Oct-28 07:45N 28°18' W 016°03'311.3
2017-Oct-28 07:30N 28°20' W 016°01'611.1
2017-Oct-28 07:00N 28°25' W 015°57'611.0
2017-Oct-28 06:30N 28°29' W 015°53'611.2
2017-Oct-28 06:00N 28°33' W 015°49'611.1
2017-Oct-28 05:30N 28°38' W 015°45'510.9
2017-Oct-28 05:00N 28°43' W 015°43'611.1
2017-Oct-28 04:30N 28°48' W 015°42'611.4
2017-Oct-28 03:59N 28°54' W 015°40'611.5
2017-Oct-28 03:30N 28°59' W 015°38'611.2
2017-Oct-28 03:00N 29°05' W 015°37'611.2
2017-Oct-28 02:30N 29°10' W 015°35'611.1
2017-Oct-28 02:00N 29°15' W 015°33'611.2
2017-Oct-28 01:30N 29°21' W 015°31'611.4
2017-Oct-28 01:00N 29°26' W 015°29'611.6
2017-Oct-28 00:30N 29°32' W 015°27'611.5
2017-Oct-28 00:00N 29°37' W 015°25'611.5
2017-Oct-27 23:30N 29°43' W 015°23'611.5
2017-Oct-27 23:00N 29°48' W 015°21'611.5
2017-Oct-27 22:30N 29°54' W 015°19'611.5
2017-Oct-27 22:00N 29°59' W 015°17'611.4
2017-Oct-27 21:30N 30°05' W 015°15'611.3
2017-Oct-27 21:00N 30°10' W 015°13'611.2
2017-Oct-27 20:30N 30°15' W 015°11'611.2
2017-Oct-27 20:00N 30°21' W 015°09'611.0
2017-Oct-27 19:30N 30°26' W 015°07'611.3
2017-Oct-27 19:00N 30°31' W 015°05'611.3
2017-Oct-27 18:30N 30°36' W 015°03'611.4
2017-Oct-27 18:00N 30°42' W 015°01'611.5
2017-Oct-27 17:30N 30°47' W 014°59'611.7
2017-Oct-27 17:00N 30°53' W 014°57'611.6
2017-Oct-27 16:30N 30°58' W 014°55'611.8
2017-Oct-27 16:00N 31°04' W 014°53'611.5
2017-Oct-27 15:30N 31°10' W 014°51'612.0
2017-Oct-27 15:00N 31°15' W 014°49'612.3
2017-Oct-27 14:30N 31°21' W 014°46'612.1
2017-Oct-27 14:00N 31°27' W 014°44'612.1
2017-Oct-27 13:29N 31°33' W 014°42'612.1
2017-Oct-27 13:00N 31°38' W 014°40'612.3
2017-Oct-27 12:30N 31°44' W 014°38'612.2
2017-Oct-27 12:00N 31°50' W 014°36'611.7
2017-Oct-27 11:30N 31°56' W 014°33'611.3
2017-Oct-27 11:00N 32°01' W 014°31'3 5.0
2017-Oct-27 10:30N 32°03' W 014°30'611.1
2017-Oct-27 10:00N 32°09' W 014°29'611.4
2017-Oct-27 09:30N 32°14' W 014°27'611.6
2017-Oct-27 09:00N 32°20' W 014°24'611.4
2017-Oct-27 08:30N 32°25' W 014°22'611.5
2017-Oct-27 08:00N 32°31' W 014°20'611.4
2017-Oct-27 07:30N 32°36' W 014°18'611.4
2017-Oct-27 07:00N 32°42' W 014°16'611.0
2017-Oct-27 06:30N 32°47' W 014°14'611.1
2017-Oct-27 06:00N 32°52' W 014°12'611.3
2017-Oct-27 05:30N 32°58' W 014°10'12311.4
2017-Oct-26 18:44N 34°55' W 013°24'311.7
2017-Oct-26 18:30N 34°57' W 013°23'611.9
2017-Oct-26 18:00N 35°03' W 013°21'611.7
2017-Oct-26 17:30N 35°09' W 013°19'611.3
2017-Oct-26 17:00N 35°14' W 013°17'611.3
2017-Oct-26 16:30N 35°19' W 013°15'611.3
2017-Oct-26 16:00N 35°25' W 013°13'611.5
2017-Oct-26 15:30N 35°30' W 013°10'611.5
2017-Oct-26 15:00N 35°36' W 013°08'611.5
2017-Oct-26 14:30N 35°41' W 013°06'611.2
2017-Oct-26 14:00N 35°46' W 013°04'611.2
2017-Oct-26 13:30N 35°52' W 013°02'611.3
2017-Oct-26 13:00N 35°57' W 012°60'611.3
2017-Oct-26 12:30N 36°03' W 012°58'611.1
2017-Oct-26 12:00N 36°08' W 012°56'611.0
2017-Oct-26 11:30N 36°13' W 012°53'611.4
2017-Oct-26 11:00N 36°19' W 012°51'611.6
2017-Oct-26 10:30N 36°24' W 012°49'611.8
2017-Oct-26 10:00N 36°30' W 012°47'611.4
2017-Oct-26 09:30N 36°35' W 012°45'611.1
2017-Oct-26 09:00N 36°40' W 012°43'511.0
2017-Oct-26 08:30N 36°46' W 012°41'611.2
2017-Oct-26 08:00N 36°51' W 012°39'611.6
2017-Oct-26 07:30N 36°57' W 012°37'611.6
2017-Oct-26 07:00N 37°02' W 012°35'611.4
2017-Oct-26 06:30N 37°08' W 012°33'611.3
2017-Oct-26 06:00N 37°13' W 012°30'611.3
2017-Oct-26 05:30N 37°18' W 012°27'611.5
2017-Oct-26 05:00N 37°23' W 012°25'611.4
2017-Oct-26 04:30N 37°29' W 012°23'611.4
2017-Oct-26 03:57N 37°35' W 012°21'2211.3
2017-Oct-26 02:02N 37°55' W 012°12'911.8
2017-Oct-26 01:18N 38°04' W 012°09'311.5
2017-Oct-26 01:00N 38°07' W 012°07'611.5
2017-Oct-26 00:30N 38°13' W 012°05'611.4
2017-Oct-26 00:01N 38°18' W 012°03'611.1
2017-Oct-25 23:30N 38°23' W 012°01'511.0
2017-Oct-25 23:01N 38°28' W 011°59'611.2
2017-Oct-25 22:31N 38°34' W 011°56'611.2
2017-Oct-25 22:01N 38°39' W 011°54'611.2
2017-Oct-25 21:30N 38°44' W 011°52'611.1
2017-Oct-25 21:00N 38°50' W 011°50'29513.4
2017-Oct-24 22:57N 43°32' W 009°55'3016.0
2017-Oct-24 21:06N 43°58' W 009°36'316.1
2017-Oct-24 20:55N 44°01' W 009°34'715.9
2017-Oct-24 20:30N 44°07' W 009°30'715.3
2017-Oct-24 20:00N 44°14' W 009°25'715.0
2017-Oct-24 19:31N 44°20' W 009°20'815.5
2017-Oct-24 19:00N 44°27' W 009°16'1715.8
2017-Oct-24 17:57N 44°42' W 009°05'715.4
2017-Oct-24 17:30N 44°48' W 009°00'2415.5
2017-Oct-24 15:57N 45°09' W 008°44'1815.6
2017-Oct-24 14:47N 45°25' W 008°31'3814.6
2017-Oct-24 12:10N 45°59' W 008°06'214.4
2017-Oct-24 12:00N 46°01' W 008°04'1314.9
2017-Oct-24 11:07N 46°13' W 007°56'1515.1
2017-Oct-24 10:08N 46°27' W 007°47'4214.5
2017-Oct-24 07:16N 47°03' W 007°19'514.8
2017-Oct-24 06:54N 47°08' W 007°15'615.1
2017-Oct-24 06:29N 47°14' W 007°11'714.9
2017-Oct-24 06:00N 47°20' W 007°05'814.6
2017-Oct-24 05:28N 47°26' W 006°59'714.3
2017-Oct-24 05:00N 47°32' W 006°54'914.2
2017-Oct-24 04:21N 47°41' W 006°48'513.9
2017-Oct-24 03:59N 47°45' W 006°45'713.9
2017-Oct-24 03:29N 47°52' W 006°40'813.8
2017-Oct-24 02:56N 47°58' W 006°34'614.0
2017-Oct-24 02:30N 48°03' W 006°30'814.1
2017-Oct-24 01:58N 48°10' W 006°24'714.5
2017-Oct-24 01:30N 48°16' W 006°20'815.0
2017-Oct-24 01:00N 48°23' W 006°15'815.3
2017-Oct-24 00:30N 48°29' W 006°09'1415.7
2017-Oct-23 23:38N 48°41' W 005°60'415.8
2017-Oct-23 23:21N 48°45' W 005°57'615.8
2017-Oct-23 22:59N 48°50' W 005°52'814.9
2017-Oct-23 22:26N 48°56' W 005°43'615.2
2017-Oct-23 22:01N 48°59' W 005°35'6713.7
2017-Oct-23 17:07N 49°34' W 004°07'413.8
2017-Oct-23 16:51N 49°36' W 004°02'514.4
2017-Oct-23 16:30N 49°39' W 003°55'715.0
2017-Oct-23 16:00N 49°42' W 003°46'915.8
2017-Oct-23 15:27N 49°46' W 003°33'716.0
2017-Oct-23 15:00N 49°49' W 003°23'816.6
2017-Oct-23 14:30N 49°53' W 003°12'816.5
2017-Oct-23 14:00N 49°57' W 003°01'1315.9
2017-Oct-23 13:12N 50°02' W 002°42'6512.7
2017-Oct-23 08:06N 50°31' W 001°11'112.0
2017-Oct-23 08:00N 50°31' W 001°10'612.9
2017-Oct-23 07:31N 50°35' W 001°01'713.2
2017-Oct-23 07:00N 50°41' W 000°58'713.4
2017-Oct-23 06:30N 50°45' W 001°07'816.1
2017-Oct-23 06:01N 50°48' W 001°19'510.9
2017-Oct-23 05:30N 50°52' W 001°23'2 0.4
2017-Oct-23 00:24N 50°54' W 001°25'  
2017-Oct-20 15:48N 50°54' W 001°25'0 0.0
2017-Oct-20 08:09N 50°54' W 001°25'0 0.0
2017-Oct-19 17:39N 50°54' W 001°25'0 0.0
2017-Oct-19 14:39N 50°54' W 001°25'  

Dump ship's entire track history